createdAt,value
2022-08-03T00:01:48.582Z,24.51
2022-08-03T00:04:15.041Z,24.51
2022-08-03T00:06:41.457Z,24.51
2022-08-03T00:09:08.218Z,24.51
2022-08-03T00:11:35.135Z,24.50
2022-08-03T00:14:01.682Z,24.50
2022-08-03T00:16:28.242Z,24.48
2022-08-03T00:18:54.637Z,24.49
2022-08-03T00:21:21.147Z,24.48
2022-08-03T00:23:52.178Z,24.47
2022-08-03T00:26:19.344Z,24.50
2022-08-03T00:28:45.765Z,24.51
2022-08-03T00:31:13.565Z,24.51
2022-08-03T00:33:59.117Z,24.52
2022-08-03T00:36:26.871Z,24.52
2022-08-03T00:38:53.290Z,24.53
2022-08-03T00:41:21.565Z,24.52
2022-08-03T00:43:48.201Z,24.52
2022-08-03T00:46:19.240Z,24.52
2022-08-03T00:48:49.042Z,24.52
2022-08-03T00:51:15.461Z,24.52
2022-08-03T00:53:41.871Z,24.52
2022-08-03T00:56:08.301Z,24.53
2022-08-03T00:58:34.716Z,24.53
2022-08-03T01:01:01.255Z,24.52
2022-08-03T01:03:27.842Z,24.54
2022-08-03T01:06:16.736Z,24.52
2022-08-03T01:08:48.924Z,24.51
2022-08-03T01:11:19.195Z,24.51
2022-08-03T01:14:03.965Z,24.50
2022-08-03T01:16:52.617Z,24.51
2022-08-03T01:19:37.888Z,24.51
2022-08-03T01:22:10.347Z,24.52
2022-08-03T01:24:52.056Z,24.53
2022-08-03T01:27:21.906Z,24.51
2022-08-03T01:29:48.267Z,24.52
2022-08-03T01:32:59.695Z,24.52
2022-08-03T01:35:42.394Z,24.51
2022-08-03T01:38:13.782Z,24.52
2022-08-03T01:40:41.726Z,24.52
2022-08-03T01:43:09.706Z,24.52
2022-08-03T01:45:36.822Z,24.51
2022-08-03T01:48:03.607Z,24.50
2022-08-03T01:50:30.993Z,24.49
2022-08-03T01:52:58.478Z,24.48
2022-08-03T01:55:28.244Z,24.48
2022-08-03T01:58:05.964Z,24.47
2022-08-03T02:00:35.696Z,24.47
2022-08-03T02:03:04.630Z,24.47
2022-08-03T02:05:31.626Z,24.47
2022-08-03T02:07:58.588Z,24.48
2022-08-03T02:10:35.333Z,24.48
2022-08-03T02:13:03.049Z,24.48
2022-08-03T02:15:30.472Z,24.48
2022-08-03T02:17:57.611Z,24.47
2022-08-03T02:20:24.181Z,24.49
2022-08-03T02:22:50.572Z,24.47
2022-08-03T02:25:17.196Z,24.49
2022-08-03T02:27:48.964Z,24.51
2022-08-03T02:30:15.555Z,24.51
2022-08-03T02:32:43.890Z,24.51
2022-08-03T02:35:11.953Z,24.50
2022-08-03T02:37:42.875Z,24.50
2022-08-03T02:40:10.240Z,24.51
2022-08-03T02:42:38.589Z,24.49
2022-08-03T02:45:06.754Z,24.51
2022-08-03T02:47:53.797Z,24.52
2022-08-03T02:50:21.927Z,24.51
2022-08-03T02:52:49.670Z,24.49
2022-08-03T02:55:16.597Z,24.50
2022-08-03T02:57:44.558Z,24.48
2022-08-03T03:00:11.265Z,24.49
2022-08-03T03:02:38.491Z,24.48
2022-08-03T03:05:52.602Z,24.49
2022-08-03T03:07:57.261Z,24.49
2022-08-03T03:10:24.717Z,24.49
2022-08-03T03:12:52.570Z,24.47
2022-08-03T03:15:19.043Z,24.49
2022-08-03T03:17:46.069Z,24.49
2022-08-03T03:20:12.762Z,24.50
2022-08-03T03:22:40.150Z,24.51
2022-08-03T03:25:11.866Z,24.51
2022-08-03T03:27:39.292Z,24.51
2022-08-03T03:30:06.026Z,24.51
2022-08-03T03:32:32.472Z,24.49
2022-08-03T03:34:59.612Z,24.48
2022-08-03T03:37:28.795Z,24.48
2022-08-03T03:39:55.309Z,24.47
2022-08-03T03:42:21.700Z,24.46
2022-08-03T03:44:48.290Z,24.47
2022-08-03T03:47:14.799Z,24.46
2022-08-03T03:49:43.469Z,24.47
2022-08-03T03:52:10.453Z,24.44
2022-08-03T03:54:41.357Z,24.44
2022-08-03T03:57:07.873Z,24.46
2022-08-03T03:59:39.718Z,24.47
2022-08-03T04:02:07.156Z,24.46
2022-08-03T04:04:52.813Z,24.46
2022-08-03T04:07:38.110Z,24.45
2022-08-03T04:10:27.635Z,24.44
2022-08-03T04:12:56.055Z,24.45
2022-08-03T04:15:24.103Z,24.45
2022-08-03T04:17:52.313Z,24.45
2022-08-03T04:20:21.381Z,24.44
2022-08-03T04:22:49.634Z,24.45
2022-08-03T04:25:19.342Z,24.45
2022-08-03T04:28:08.063Z,24.46
2022-08-03T04:30:36.169Z,24.46
2022-08-03T04:33:02.719Z,24.46
2022-08-03T04:36:00.991Z,24.48
2022-08-03T04:38:20.045Z,24.47
2022-08-03T04:40:47.895Z,24.48
2022-08-03T04:43:16.692Z,24.48
2022-08-03T04:45:43.843Z,24.48
2022-08-03T04:48:10.313Z,24.49
2022-08-03T04:50:37.006Z,24.49
2022-08-03T04:53:03.649Z,24.52
2022-08-03T04:55:30.952Z,24.53
2022-08-03T04:57:57.804Z,24.54
2022-08-03T05:00:24.908Z,24.53
2022-08-03T05:02:51.495Z,24.53
2022-08-03T05:05:17.985Z,24.52
2022-08-03T05:07:45.706Z,24.50
2022-08-03T05:10:16.002Z,24.50
2022-08-03T05:12:44.014Z,24.48
2022-08-03T05:15:10.570Z,24.48
2022-08-03T05:17:37.032Z,24.49
2022-08-03T05:20:04.572Z,24.48
2022-08-03T05:22:30.965Z,24.49
2022-08-03T05:24:57.688Z,24.49
2022-08-03T05:27:24.108Z,24.49
2022-08-03T05:29:51.160Z,24.48
2022-08-03T05:32:18.158Z,24.51
2022-08-03T05:34:44.809Z,24.51
2022-08-03T05:37:11.335Z,24.52
2022-08-03T05:39:38.225Z,24.56
2022-08-03T05:42:04.785Z,24.58
2022-08-03T05:44:31.793Z,24.58
2022-08-03T05:46:58.565Z,24.59
2022-08-03T05:49:25.031Z,24.60
2022-08-03T05:52:00.354Z,24.62
2022-08-03T05:54:56.306Z,24.63
2022-08-03T05:57:24.090Z,24.64
2022-08-03T05:59:53.896Z,24.65
2022-08-03T06:02:24.735Z,24.66
2022-08-03T06:04:51.136Z,24.67
2022-08-03T06:07:17.774Z,24.66
2022-08-03T06:10:35.093Z,24.68
2022-08-03T06:12:31.144Z,24.68
2022-08-03T06:14:57.631Z,24.69
2022-08-03T06:17:24.104Z,24.69
2022-08-03T06:19:53.708Z,24.69
2022-08-03T06:22:20.436Z,24.70
2022-08-03T06:24:53.539Z,24.70
2022-08-03T06:27:21.158Z,24.70
2022-08-03T06:30:03.669Z,24.71
2022-08-03T06:32:30.088Z,24.71
2022-08-03T06:34:56.475Z,24.72
2022-08-03T06:37:24.515Z,24.71
2022-08-03T06:39:50.904Z,24.73
2022-08-03T06:42:17.539Z,24.74
2022-08-03T06:44:44.131Z,24.74
2022-08-03T06:47:10.528Z,24.74
2022-08-03T06:49:37.117Z,24.74
2022-08-03T06:52:06.949Z,24.75
2022-08-03T06:54:33.658Z,24.75
2022-08-03T06:57:00.103Z,24.76
2022-08-03T07:00:06.145Z,24.75
2022-08-03T07:02:13.020Z,24.76
2022-08-03T07:04:45.797Z,24.77
2022-08-03T07:07:12.227Z,24.77
2022-08-03T07:09:38.680Z,24.77
2022-08-03T07:12:08.295Z,24.77
2022-08-03T07:14:35.083Z,24.78
2022-08-03T07:17:01.500Z,24.77
2022-08-03T07:19:31.273Z,24.78
2022-08-03T07:22:02.173Z,24.78
2022-08-03T07:24:30.768Z,24.79
2022-08-03T07:26:57.220Z,24.77
2022-08-03T07:29:23.687Z,24.78
2022-08-03T07:31:50.216Z,24.78
2022-08-03T07:34:16.830Z,24.77
2022-08-03T07:36:43.453Z,24.79
2022-08-03T07:39:15.806Z,24.77
2022-08-03T07:41:45.302Z,24.80
2022-08-03T07:44:11.785Z,24.79
2022-08-03T07:46:38.324Z,24.81
2022-08-03T07:49:05.456Z,24.77
2022-08-03T07:51:31.985Z,24.80
2022-08-03T07:53:59.105Z,24.84
2022-08-03T07:56:25.778Z,24.88
2022-08-03T07:58:52.691Z,24.90
2022-08-03T08:01:19.607Z,24.90
2022-08-03T08:03:52.312Z,24.93
2022-08-03T08:06:19.653Z,24.93
2022-08-03T08:08:46.523Z,24.94
2022-08-03T08:11:13.116Z,24.95
2022-08-03T08:13:39.660Z,24.94
2022-08-03T08:16:06.403Z,24.96
2022-08-03T08:18:32.955Z,24.96
2022-08-03T08:21:01.490Z,24.96
2022-08-03T08:23:43.404Z,24.97
2022-08-03T08:26:11.106Z,24.95
2022-08-03T08:28:37.564Z,24.98
2022-08-03T08:31:04.091Z,24.97
2022-08-03T08:33:54.203Z,24.97
2022-08-03T08:36:17.387Z,24.99
2022-08-03T08:38:45.044Z,24.99
2022-08-03T08:41:12.114Z,24.99
2022-08-03T08:43:38.888Z,25.00
2022-08-03T08:46:08.232Z,25.00
2022-08-03T08:48:35.927Z,25.00
2022-08-03T08:51:02.706Z,25.00
2022-08-03T08:53:29.451Z,25.01
2022-08-03T08:56:00.875Z,25.02
2022-08-03T08:58:34.695Z,25.01
2022-08-03T09:01:01.252Z,25.02
2022-08-03T09:03:30.222Z,25.02
2022-08-03T09:05:58.293Z,25.01
2022-08-03T09:08:24.859Z,25.03
2022-08-03T09:10:51.299Z,25.02
2022-08-03T09:13:17.706Z,25.02
2022-08-03T09:15:51.281Z,25.03
2022-08-03T09:18:32.784Z,25.03
2022-08-03T09:21:33.666Z,25.03
2022-08-03T09:24:03.864Z,25.03
2022-08-03T09:26:32.232Z,25.04
2022-08-03T09:29:05.923Z,25.04
2022-08-03T09:31:43.128Z,25.03
2022-08-03T09:34:11.632Z,25.03
2022-08-03T09:36:45.892Z,25.04
2022-08-03T09:39:40.770Z,25.04
2022-08-03T09:42:09.487Z,25.05
2022-08-03T09:44:40.962Z,25.04
2022-08-03T09:47:07.684Z,25.06
2022-08-03T09:49:37.191Z,25.06
2022-08-03T09:52:33.020Z,25.05
2022-08-03T09:54:59.875Z,25.05
2022-08-03T09:57:26.853Z,25.06
2022-08-03T10:00:03.137Z,25.06
2022-08-03T10:02:32.951Z,25.06
2022-08-03T10:04:59.452Z,25.07
2022-08-03T10:07:25.853Z,25.07
2022-08-03T10:10:31.328Z,25.07
2022-08-03T10:12:57.380Z,25.06
2022-08-03T10:16:21.430Z,25.07
2022-08-03T10:18:10.387Z,25.07
2022-08-03T10:20:38.197Z,25.06
2022-08-03T10:23:05.208Z,25.07
2022-08-03T10:25:34.114Z,25.07
2022-08-03T10:28:02.142Z,25.07
2022-08-03T10:30:29.321Z,25.07
2022-08-03T10:33:00.036Z,25.08
2022-08-03T10:35:26.946Z,25.08
2022-08-03T10:37:59.083Z,25.08
2022-08-03T10:40:47.672Z,25.08
2022-08-03T10:43:18.657Z,25.07
2022-08-03T10:45:46.085Z,25.08
2022-08-03T10:48:13.636Z,25.08
2022-08-03T10:50:42.166Z,25.09
2022-08-03T10:53:08.782Z,25.08
2022-08-03T10:55:58.185Z,25.08
2022-08-03T10:58:53.341Z,25.08
2022-08-03T11:02:00.205Z,25.09
2022-08-03T11:04:29.513Z,25.07
2022-08-03T11:07:15.076Z,25.08
2022-08-03T11:09:42.847Z,25.08
2022-08-03T11:12:31.126Z,25.07
2022-08-03T11:15:02.709Z,25.07
2022-08-03T11:17:29.382Z,25.08
2022-08-03T11:19:56.462Z,25.07
2022-08-03T11:22:25.097Z,25.11
2022-08-03T11:24:53.794Z,25.09
2022-08-03T11:27:22.738Z,25.09
2022-08-03T11:30:04.421Z,25.08
2022-08-03T11:32:51.543Z,25.09
2022-08-03T11:35:25.493Z,25.08
2022-08-03T11:38:04.330Z,25.07
2022-08-03T11:40:53.567Z,25.08
2022-08-03T11:43:30.630Z,25.08
2022-08-03T11:46:00.793Z,25.08
2022-08-03T11:48:28.436Z,25.08
2022-08-03T11:50:54.890Z,25.08
2022-08-03T11:53:21.304Z,25.09
2022-08-03T11:55:53.141Z,25.07
2022-08-03T11:59:00.776Z,25.08
2022-08-03T12:01:08.230Z,25.08
2022-08-03T12:03:35.461Z,25.08
2022-08-03T12:06:03.098Z,25.09
2022-08-03T12:08:32.621Z,25.09
2022-08-03T12:11:00.316Z,25.08
2022-08-03T12:14:45.383Z,25.09
2022-08-03T12:16:23.891Z,25.08
2022-08-03T12:18:56.772Z,25.08
2022-08-03T12:21:24.771Z,25.08
2022-08-03T12:23:51.333Z,25.07
2022-08-03T12:26:17.759Z,25.08
2022-08-03T12:28:49.878Z,25.07
2022-08-03T12:31:16.997Z,25.08
2022-08-03T12:34:08.348Z,25.08
2022-08-03T12:36:35.415Z,25.07
2022-08-03T12:39:04.340Z,25.07
2022-08-03T12:41:31.569Z,25.08
2022-08-03T12:43:58.250Z,25.08
2022-08-03T12:46:29.819Z,25.07
2022-08-03T12:49:02.518Z,25.07
2022-08-03T12:51:33.318Z,25.06
2022-08-03T12:54:02.558Z,25.07
2022-08-03T12:56:29.055Z,25.06
2022-08-03T12:58:55.594Z,25.07
2022-08-03T13:01:24.242Z,25.07
2022-08-03T13:03:53.562Z,25.06
2022-08-03T13:06:22.117Z,25.07
2022-08-03T13:08:49.443Z,25.06
2022-08-03T13:11:53.503Z,25.05
2022-08-03T13:14:10.560Z,25.04
2022-08-03T13:16:43.155Z,25.04
2022-08-03T13:19:15.233Z,25.04
2022-08-03T13:21:53.887Z,25.04
2022-08-03T13:24:29.467Z,25.02
2022-08-03T13:26:57.085Z,25.04
2022-08-03T13:29:23.582Z,25.04
2022-08-03T13:31:50.867Z,25.04
2022-08-03T13:34:23.007Z,25.03
2022-08-03T13:37:08.400Z,25.02
2022-08-03T13:39:57.154Z,25.02
2022-08-03T13:42:22.618Z,25.02
2022-08-03T13:44:49.015Z,25.02
2022-08-03T13:47:15.417Z,25.02
2022-08-03T13:49:42.088Z,25.02
2022-08-03T13:52:21.113Z,25.00
2022-08-03T13:54:47.725Z,25.01
2022-08-03T13:58:04.605Z,25.01
2022-08-03T14:00:01.547Z,25.02
2022-08-03T14:02:28.066Z,25.02
2022-08-03T14:04:54.823Z,25.01
2022-08-03T14:07:21.539Z,25.01
2022-08-03T14:09:48.096Z,25.01
2022-08-03T14:12:14.469Z,25.01
2022-08-03T14:14:41.032Z,25.00
2022-08-03T14:17:07.527Z,25.00
2022-08-03T14:19:34.266Z,24.99
2022-08-03T14:22:19.346Z,25.00
2022-08-03T14:24:45.840Z,24.96
2022-08-03T14:27:12.239Z,25.00
2022-08-03T14:29:38.703Z,25.00
2022-08-03T14:32:11.693Z,24.99
2022-08-03T14:34:39.333Z,25.00
2022-08-03T14:37:05.928Z,25.00
2022-08-03T14:42:20.476Z,25.00
2022-08-03T14:44:47.371Z,24.99
2022-08-03T14:47:14.137Z,24.98
2022-08-03T14:50:37.475Z,24.98
2022-08-03T14:52:27.006Z,24.99
2022-08-03T14:54:53.719Z,24.99
2022-08-03T14:57:20.364Z,24.99
2022-08-03T14:59:56.453Z,24.99
2022-08-03T15:02:24.203Z,24.99
2022-08-03T15:04:50.881Z,24.98
2022-08-03T15:07:17.472Z,24.99
2022-08-03T15:09:43.972Z,24.97
2022-08-03T15:12:10.493Z,24.97
2022-08-03T15:14:38.650Z,24.98
2022-08-03T15:17:05.278Z,24.98
2022-08-03T15:20:02.079Z,24.97
2022-08-03T15:22:20.618Z,24.97
2022-08-03T15:24:51.609Z,24.98
2022-08-03T15:27:18.245Z,24.97
2022-08-03T15:30:07.688Z,24.98
2022-08-03T15:32:31.385Z,24.98
2022-08-03T15:34:57.796Z,24.97
2022-08-03T15:37:25.793Z,24.97
2022-08-03T15:39:58.381Z,24.98
2022-08-03T15:42:26.628Z,24.98
2022-08-03T15:44:54.014Z,24.97
2022-08-03T15:47:21.431Z,24.97
2022-08-03T15:49:48.054Z,24.97
2022-08-03T15:52:14.507Z,24.97
2022-08-03T15:54:40.922Z,24.97
2022-08-03T15:57:07.410Z,24.97
2022-08-03T15:59:34.053Z,24.98
2022-08-03T16:02:00.683Z,24.97
2022-08-03T16:04:27.182Z,24.97
2022-08-03T16:06:53.617Z,24.97
2022-08-03T16:09:23.611Z,24.97
2022-08-03T16:12:06.513Z,24.97
2022-08-03T16:14:51.795Z,24.97
2022-08-03T16:17:19.451Z,24.96
2022-08-03T16:19:46.083Z,24.96
2022-08-03T16:22:13.389Z,24.97
2022-08-03T16:24:40.989Z,24.98
2022-08-03T16:27:07.862Z,24.98
2022-08-03T16:29:44.049Z,24.96
2022-08-03T16:32:10.942Z,24.97
2022-08-03T16:34:37.917Z,24.96
2022-08-03T16:37:16.708Z,24.96
2022-08-03T16:39:51.061Z,24.96
2022-08-03T16:42:17.500Z,24.98
2022-08-03T16:44:43.915Z,24.97
2022-08-03T16:47:10.359Z,24.98
2022-08-03T16:49:54.907Z,24.97
2022-08-03T16:52:23.031Z,24.97
2022-08-03T16:54:53.243Z,24.97
2022-08-03T16:57:56.748Z,24.99
2022-08-03T17:00:10.694Z,24.99
2022-08-03T17:02:37.456Z,25.00
2022-08-03T17:05:04.280Z,25.00
2022-08-03T17:07:30.850Z,25.00
2022-08-03T17:09:57.364Z,24.99
2022-08-03T17:12:27.024Z,24.99
2022-08-03T17:14:54.066Z,25.01
2022-08-03T17:17:27.985Z,25.00
2022-08-03T17:19:55.458Z,25.01
2022-08-03T17:22:24.615Z,25.02
2022-08-03T17:24:52.049Z,25.01
2022-08-03T17:28:48.997Z,25.02
2022-08-03T17:30:08.584Z,25.02
2022-08-03T17:32:42.676Z,25.03
2022-08-03T17:35:18.813Z,25.02
2022-08-03T17:37:58.555Z,25.02
2022-08-03T17:40:30.900Z,25.02
2022-08-03T17:42:58.704Z,25.03
2022-08-03T17:45:25.313Z,25.03
2022-08-03T17:48:11.748Z,25.04
2022-08-03T17:51:05.363Z,25.03
2022-08-03T17:53:37.316Z,25.04
2022-08-03T17:56:40.749Z,25.04
2022-08-03T17:59:13.855Z,25.03
2022-08-03T18:02:16.632Z,25.04
2022-08-03T18:04:57.074Z,25.04
2022-08-03T18:07:25.531Z,25.04
2022-08-03T18:10:11.560Z,25.03
2022-08-03T18:12:52.409Z,25.06
2022-08-03T18:15:41.812Z,25.06
2022-08-03T18:18:11.306Z,25.04
2022-08-03T18:20:41.613Z,25.04
2022-08-03T18:23:10.302Z,25.04
2022-08-03T18:25:45.403Z,25.05
2022-08-03T18:28:16.202Z,25.06
2022-08-03T18:30:54.073Z,25.05
2022-08-03T18:34:16.217Z,25.06
2022-08-03T18:36:10.432Z,25.04
2022-08-03T18:38:40.459Z,25.06
2022-08-03T18:41:15.611Z,25.06
2022-08-03T18:43:58.216Z,25.06
2022-08-03T18:46:34.212Z,25.06
2022-08-03T18:49:11.307Z,25.06
2022-08-03T18:51:43.277Z,25.06
2022-08-03T18:54:59.109Z,25.05
2022-08-03T18:57:08.924Z,25.05
2022-08-03T18:59:49.568Z,25.05
2022-08-03T19:02:28.895Z,25.06
2022-08-03T19:04:58.415Z,25.04
2022-08-03T19:07:26.596Z,25.06
2022-08-03T19:09:54.580Z,25.05
2022-08-03T19:12:30.971Z,25.06
2022-08-03T19:15:12.647Z,25.06
2022-08-03T19:17:41.554Z,25.06
2022-08-03T19:20:09.511Z,25.05
2022-08-03T19:22:37.066Z,25.07
2022-08-03T19:25:04.557Z,25.06
2022-08-03T19:27:31.729Z,25.07
2022-08-03T19:30:02.058Z,25.07
2022-08-03T19:32:32.052Z,25.07
2022-08-03T19:34:59.816Z,25.07
2022-08-03T19:37:38.372Z,25.08
2022-08-03T19:40:10.268Z,25.07
2022-08-03T19:42:40.279Z,25.08
2022-08-03T19:45:11.312Z,25.08
2022-08-03T19:47:52.178Z,25.07
2022-08-03T19:50:19.991Z,25.08
2022-08-03T19:52:47.863Z,25.09
2022-08-03T19:55:15.409Z,25.08
2022-08-03T19:57:43.724Z,25.07
2022-08-03T20:02:59.682Z,25.08
2022-08-03T20:05:26.686Z,25.08
2022-08-03T20:07:54.192Z,25.09
2022-08-03T20:10:20.835Z,25.08
2022-08-03T20:12:48.624Z,25.09
2022-08-03T20:15:18.133Z,25.08
2022-08-03T20:17:56.448Z,25.08
2022-08-03T20:20:32.699Z,25.09
2022-08-03T20:23:06.909Z,25.08
2022-08-03T20:25:56.992Z,25.10
2022-08-03T20:28:32.751Z,25.09
2022-08-03T20:31:00.006Z,25.11
2022-08-03T20:33:46.537Z,25.09
2022-08-03T20:36:18.235Z,25.09
2022-08-03T20:38:47.130Z,25.09
2022-08-03T20:41:14.537Z,25.10
2022-08-03T20:43:41.342Z,25.10
2022-08-03T20:46:33.715Z,25.08
2022-08-03T20:48:56.751Z,25.09
2022-08-03T20:51:48.953Z,25.09
2022-08-03T20:54:28.908Z,25.09
2022-08-03T20:56:57.796Z,25.06
2022-08-03T20:59:28.841Z,25.08
2022-08-03T21:04:42.520Z,25.08
2022-08-03T21:07:23.061Z,25.08
2022-08-03T21:09:57.070Z,25.09
2022-08-03T21:12:28.858Z,25.08
2022-08-03T21:13:03.270Z,25.09
2022-08-03T21:14:58.505Z,25.07
2022-08-03T21:17:39.895Z,25.04
2022-08-03T21:20:08.473Z,25.00
2022-08-03T21:22:36.952Z,24.98
2022-08-03T21:25:09.310Z,24.98
2022-08-03T21:27:36.398Z,24.97
2022-08-03T21:30:05.347Z,24.99
2022-08-03T21:32:33.131Z,25.00
2022-08-03T21:35:00.513Z,25.02
2022-08-03T21:37:27.955Z,25.02
2022-08-03T21:39:54.957Z,25.01
2022-08-03T21:42:23.904Z,25.01
2022-08-03T21:44:53.166Z,24.99
2022-08-03T21:47:21.942Z,24.99
2022-08-03T21:50:05.554Z,24.98
2022-08-03T21:52:36.337Z,25.00
2022-08-03T21:55:06.428Z,24.99
2022-08-03T21:57:34.125Z,24.98
2022-08-03T22:00:17.401Z,24.98
2022-08-03T22:02:57.410Z,25.00
2022-08-03T22:05:42.877Z,24.98
2022-08-03T22:08:12.573Z,24.99
2022-08-03T22:10:39.271Z,24.99
2022-08-03T22:13:05.999Z,24.99
2022-08-03T22:15:32.879Z,24.99
2022-08-03T22:18:03.559Z,25.00
2022-08-03T22:20:30.594Z,25.00
2022-08-03T22:22:59.996Z,24.99
2022-08-03T22:25:36.837Z,24.99
2022-08-03T22:28:07.964Z,24.99
2022-08-03T22:30:35.090Z,25.00
2022-08-03T22:33:02.417Z,25.00
2022-08-03T22:35:31.227Z,24.99
2022-08-03T22:37:58.878Z,25.00
2022-08-03T22:40:26.326Z,25.00
2022-08-03T22:42:53.327Z,25.01
2022-08-03T22:46:07.428Z,25.01
2022-08-03T22:48:11.021Z,25.00
2022-08-03T22:50:37.802Z,24.99
2022-08-03T22:53:04.502Z,25.00
2022-08-03T22:55:31.094Z,25.00
2022-08-03T22:57:57.549Z,25.00
2022-08-03T23:00:24.765Z,25.00
2022-08-03T23:02:51.726Z,25.00
2022-08-03T23:06:01.611Z,24.99
2022-08-03T23:08:14.747Z,25.00
2022-08-03T23:10:46.686Z,25.00
2022-08-03T23:13:14.602Z,24.99
2022-08-03T23:15:41.486Z,25.00
2022-08-03T23:18:09.488Z,24.99
2022-08-03T23:20:37.759Z,25.00
2022-08-03T23:23:05.197Z,24.99
2022-08-03T23:25:31.727Z,25.00
2022-08-03T23:28:04.849Z,25.00
2022-08-03T23:30:33.655Z,25.01
2022-08-03T23:33:00.971Z,25.02
2022-08-03T23:36:28.698Z,25.03
2022-08-03T23:38:37.345Z,25.03
2022-08-03T23:41:04.746Z,25.03
2022-08-03T23:43:50.832Z,25.02
2022-08-03T23:46:19.769Z,25.02
2022-08-03T23:48:46.490Z,25.03
2022-08-03T23:51:31.756Z,25.02
2022-08-03T23:54:02.947Z,25.02
2022-08-03T23:56:38.042Z,25.02
2022-08-03T23:59:27.449Z,25.03
